Time;durP1;ratioP1;P1;durP2;ratioP2;P2;SDS_P1;SDS_P2;PMS_P1;PMS_P2;Temp;Humidity;BMP_temperature;BMP_pressure;BME280_temperature;BME280_humidity;BME280_pressure;Samples;Min_cycle;Max_cycle;Signal;HPM_P1;HPM_P2
2023/04/03 00:00:59;;;;;;;;;;;;;;;14.74;56.24;103405.53;2107840;28;19940;-56
2023/04/03 00:02:01;;;;;;;;;;;;;;;14.74;56.20;103412.88;2098539;28;20700;-57
2023/04/03 00:03:03;;;;;;;;;;;;;;;14.74;55.99;103404.69;2105776;28;20423;-57
2023/04/03 00:04:06;;;;;;;;;;;;;;;14.73;56.05;103403.88;2108138;28;19935;-57
2023/04/03 00:05:09;;;;;;;;;;;;;;;14.73;56.12;103403.09;2105296;28;20455;-57
2023/04/03 00:06:12;;;;;;;;;;;;;;;14.73;55.98;103408.53;2105001;28;19931;-57
2023/04/03 00:07:14;;;;;;;;;;;;;;;14.72;55.93;103401.47;2104455;28;19932;-54
2023/04/03 00:08:17;;;;;;;;;;;;;;;14.73;55.72;103413.97;2105252;28;19954;-57
2023/04/03 00:09:19;;;;;;;;;;;;;;;14.71;55.74;103405.31;2107601;28;19980;-57
2023/04/03 00:10:22;;;;;;;;;;;;;;;14.72;56.09;103412.34;2112950;27;20027;-59
2023/04/03 00:11:25;;;;;;;;;;;;;;;14.71;55.82;103410.75;2113822;28;19956;-55
2023/04/03 00:12:27;;;;;;;;;;;;;;;14.70;55.92;103409.13;2117168;27;20391;-57
2023/04/03 00:13:29;;;;;;;;;;;;;;;14.71;55.64;103411.53;2115388;27;20009;-56
2023/04/03 00:14:32;;;;;;;;;;;;;;;14.70;55.82;103417.28;2114050;27;19927;-57
2023/04/03 00:15:34;;;;;;;;;;;;;;;14.70;55.58;103417.28;2117245;27;19931;-55
2023/04/03 00:16:37;;;;;;;;;;;;;;;14.69;55.74;103407.53;2114541;27;19924;-57
2023/04/03 00:17:39;;;;;;;;;;;;;;;14.69;55.60;103413.78;2111413;27;19927;-56
2023/04/03 00:18:41;;;;;;;;;;;;;;;14.69;55.76;103413.78;2111170;28;19924;-56
2023/04/03 00:19:43;;;;;;;;;;;;;;;14.69;55.72;103418.41;2108372;28;20387;-57
2023/04/03 00:20:47;;;;;;;;;;;;;;;14.69;55.61;103415.69;2116409;27;19935;-56
2023/04/03 00:21:49;;;;;;;;;;;;;;;14.68;55.88;103428.47;2117616;27;20366;-57
2023/04/03 00:22:51;;;;;;;;;;;;;;;14.68;55.65;103416.81;2113623;28;19923;-57
2023/04/03 00:23:53;;;;;;;;;;;;;;;14.67;55.45;103418.72;2116359;27;19976;-56
2023/04/03 00:24:56;;;;;;;;;;;;;;;14.67;55.60;103424.16;2112612;28;20387;-55
2023/04/03 00:25:57;;;;;;;;;;;;;;;14.66;55.23;103414.41;2105393;28;19977;-57
2023/04/03 00:27:00;;;;;;;;;;;;;;;14.66;55.38;103417.13;2113417;28;20310;-56
2023/04/03 00:28:02;;;;;;;;;;;;;;;14.66;55.51;103428.00;2113297;27;20387;-57
2023/04/03 00:29:05;;;;;;;;;;;;;;;14.65;55.38;103411.97;2110645;27;20351;-57
2023/04/03 00:30:08;;;;;;;;;;;;;;;14.65;55.26;103411.97;2111447;28;20310;-56
2023/04/03 00:31:11;;;;;;;;;;;;;;;14.64;55.28;103422.03;2113597;28;20378;-56
2023/04/03 00:32:13;;;;;;;;;;;;;;;14.65;55.17;103428.31;2096675;28;20077;-57
2023/04/03 00:33:15;;;;;;;;;;;;;;;14.65;55.18;103420.16;2099169;28;20415;-55
2023/04/03 00:34:17;;;;;;;;;;;;;;;14.64;54.89;103422.03;2098163;28;19936;-54
2023/04/03 00:35:20;;;;;;;;;;;;;;;14.64;55.05;103427.50;2105770;28;20240;-53
2023/04/03 00:36:23;;;;;;;;;;;;;;;14.65;55.13;103422.88;2101146;28;19928;-53
2023/04/03 00:37:26;;;;;;;;;;;;;;;14.63;55.50;103423.16;2104285;28;19942;-54
2023/04/03 00:38:28;;;;;;;;;;;;;;;14.64;55.33;103430.19;2114997;27;19928;-54
2023/04/03 00:39:31;;;;;;;;;;;;;;;14.64;55.19;103421.22;2113172;28;19935;-53
2023/04/03 00:40:34;;;;;;;;;;;;;;;14.63;55.05;103431.31;2108058;28;19928;-53
2023/04/03 00:41:36;;;;;;;;;;;;;;;14.63;54.99;103425.06;2115327;27;19931;-53
2023/04/03 00:42:39;;;;;;;;;;;;;;;14.63;54.90;103431.31;2115215;27;19966;-53
2023/04/03 00:43:42;;;;;;;;;;;;;;;14.63;54.90;103433.22;2113239;28;19951;-52
2023/04/03 00:45:02;;;;;;;;;;;;;;;14.62;54.91;103420.72;2113724;27;19956;-52
2023/04/03 00:46:04;;;;;;;;;;;;;;;14.61;54.76;103430.81;2113437;28;19935;-52
2023/04/03 00:47:08;;;;;;;;;;;;;;;14.61;55.13;103436.25;2113496;28;20401;-53
2023/04/03 00:48:12;;;;;;;;;;;;;;;14.61;55.15;103432.72;2110527;27;20359;-58
2023/04/03 00:49:14;;;;;;;;;;;;;;;14.61;54.77;103432.72;2112976;27;19928;-52
2023/04/03 00:50:17;;;;;;;;;;;;;;;14.61;54.61;103432.72;2113273;28;20431;-53
2023/04/03 00:51:23;;;;;;;;;;;;;;;14.61;54.90;103441.69;2113968;27;19927;-51
2023/04/03 00:52:28;;;;;;;;;;;;;;;14.60;54.91;103436.56;2113084;28;19974;-51
2023/04/03 00:53:34;;;;;;;;;;;;;;;14.60;54.63;103434.63;2105373;28;19957;-52
2023/04/03 00:54:37;;;;;;;;;;;;;;;14.60;54.77;103436.56;2111475;28;19932;-54
2023/04/03 00:55:40;;;;;;;;;;;;;;;14.53;54.48;103430.72;2109465;27;19935;-52
2023/04/03 00:56:43;;;;;;;;;;;;;;;14.59;54.27;103449.34;2113837;27;19962;-53
2023/04/03 00:57:46;;;;;;;;;;;;;;;14.58;54.78;103445.03;2109582;28;20401;-52
2023/04/03 00:58:51;;;;;;;;;;;;;;;14.59;54.33;103445.81;2113216;28;20358;-53
2023/04/03 00:59:55;;;;;;;;;;;;;;;14.58;54.36;103438.78;2112795;28;19928;-53
2023/04/03 01:00:59;;;;;;;;;;;;;;;14.58;54.51;103445.03;2104447;28;19927;-52
2023/04/03 01:02:01;;;;;;;;;;;;;;;14.57;54.39;103440.66;2102956;28;20295;-54
2023/04/03 01:03:04;;;;;;;;;;;;;;;14.57;54.36;103446.13;2110353;27;19928;-52
2023/04/03 01:04:26;;;;;;;;;;;;;;;14.56;54.27;103447.22;2096722;28;20314;-52
2023/04/03 01:05:29;;;;;;;;;;;;;;;14.56;54.31;103446.41;2089313;28;20036;-54
2023/04/03 01:06:33;;;;;;;;;;;;;;;14.56;54.13;103452.66;2095615;28;19932;-52
2023/04/03 01:07:42;;;;;;;;;;;;;;;14.56;54.17;103440.97;2090761;28;19929;-54
2023/04/03 01:08:46;;;;;;;;;;;;;;;14.56;54.13;103446.41;2103363;28;19941;-54
2023/04/03 01:09:52;;;;;;;;;;;;;;;14.56;54.05;103440.97;2111625;27;19927;-54
2023/04/03 01:10:53;;;;;;;;;;;;;;;14.55;54.22;103444.81;2112169;27;19928;-52
2023/04/03 01:12:12;;;;;;;;;;;;;;;14.54;53.88;103444.00;2099528;28;19928;-54
2023/04/03 01:13:18;;;;;;;;;;;;;;;14.54;54.42;103444.00;2098492;28;19985;-53
2023/04/03 01:14:21;;;;;;;;;;;;;;;14.54;53.86;103437.78;2096619;28;20299;-54
2023/04/03 01:15:24;;;;;;;;;;;;;;;14.53;54.32;103442.41;2094747;28;19928;-54
2023/04/03 01:16:28;;;;;;;;;;;;;;;14.53;54.22;103445.13;2103222;28;19928;-53
2023/04/03 01:17:31;;;;;;;;;;;;;;;14.53;53.63;103436.16;2116130;27;19958;-52
2023/04/03 01:18:35;;;;;;;;;;;;;;;14.53;53.99;103441.59;2116694;27;20047;-53
2023/04/03 01:19:41;;;;;;;;;;;;;;;14.52;54.09;103442.72;2106921;28;19928;-52
2023/04/03 01:20:59;;;;;;;;;;;;;;;14.51;54.04;103436.47;2109658;28;19974;-53
2023/04/03 01:22:05;;;;;;;;;;;;;;;14.52;53.67;103438.09;2109694;28;20006;-51
2023/04/03 01:23:17;;;;;;;;;;;;;;;14.51;54.05;103444.63;2112636;28;20102;-51
2023/04/03 01:24:27;;;;;;;;;;;;;;;14.51;53.66;103438.38;2108849;28;20395;-51
2023/04/03 01:25:30;;;;;;;;;;;;;;;14.51;53.28;103432.94;2103485;28;19928;-54
2023/04/03 01:26:33;;;;;;;;;;;;;;;14.52;53.67;103445.44;2104524;28;19928;-53
2023/04/03 01:27:35;;;;;;;;;;;;;;;14.51;53.54;103441.09;2111424;27;19928;-54
2023/04/03 01:28:37;;;;;;;;;;;;;;;14.51;53.84;103449.25;2103401;28;19935;-52
2023/04/03 01:29:40;;;;;;;;;;;;;;;14.49;53.69;103441.38;2102083;28;19928;-52
2023/04/03 01:30:46;;;;;;;;;;;;;;;14.50;53.48;103442.19;2114639;27;19934;-53
2023/04/03 01:31:54;;;;;;;;;;;;;;;14.49;53.80;103444.09;2111068;27;20061;-54
2023/04/03 01:32:56;;;;;;;;;;;;;;;14.49;53.74;103444.09;2113095;28;19935;-53
2023/04/03 01:33:59;;;;;;;;;;;;;;;14.49;53.31;103446.03;2097455;28;19944;-53
2023/04/03 01:35:01;;;;;;;;;;;;;;;14.48;53.03;103444.41;2094932;28;19935;-56
2023/04/03 01:36:04;;;;;;;;;;;;;;;14.48;53.26;103447.13;2112932;27;20356;-57
2023/04/03 01:37:07;;;;;;;;;;;;;;;14.49;53.52;103448.75;2099460;28;20011;-53
2023/04/03 01:38:10;;;;;;;;;;;;;;;14.48;53.33;103455.28;2103134;28;20280;-57
2023/04/03 01:39:13;;;;;;;;;;;;;;;14.47;53.50;103448.25;2113342;27;19935;-55
2023/04/03 01:40:14;;;;;;;;;;;;;;;14.47;53.43;103453.69;2110779;28;19932;-57
2023/04/03 01:41:17;;;;;;;;;;;;;;;14.47;53.03;103449.06;2119449;27;19970;-56
2023/04/03 01:42:21;;;;;;;;;;;;;;;14.47;52.95;103453.69;2106698;28;19931;-56
2023/04/03 01:43:23;;;;;;;;;;;;;;;14.46;53.39;103452.09;2098971;28;19928;-56
2023/04/03 01:44:25;;;;;;;;;;;;;;;14.46;52.83;103452.88;2113865;28;19969;-57
2023/04/03 01:45:27;;;;;;;;;;;;;;;14.46;53.06;103449.38;2104394;28;19975;-57
2023/04/03 01:46:30;;;;;;;;;;;;;;;14.45;52.95;103461.31;2112875;28;19927;-57
2023/04/03 01:47:33;;;;;;;;;;;;;;;14.44;53.18;103460.53;2117738;27;19927;-56
2023/04/03 01:48:36;;;;;;;;;;;;;;;14.45;53.10;103458.59;2114616;28;20387;-54
2023/04/03 01:49:38;;;;;;;;;;;;;;;14.45;52.88;103461.31;2117232;27;19928;-56
2023/04/03 01:50:40;;;;;;;;;;;;;;;14.44;52.85;103455.09;2104507;28;20386;-56
2023/04/03 01:51:43;;;;;;;;;;;;;;;14.44;52.77;103471.41;2090318;28;19935;-57
2023/04/03 01:52:45;;;;;;;;;;;;;;;14.44;52.79;103465.16;2088574;28;19929;-57
2023/04/03 01:53:48;;;;;;;;;;;;;;;14.44;52.84;103470.59;2101673;28;19936;-57
2023/04/03 01:54:50;;;;;;;;;;;;;;;14.43;52.88;103472.50;2102753;28;20019;-57
2023/04/03 01:55:53;;;;;;;;;;;;;;;14.43;52.90;103469.00;2103672;28;19950;-55
2023/04/03 01:56:54;;;;;;;;;;;;;;;14.43;52.53;103463.56;2109877;28;20026;-55
2023/04/03 01:57:57;;;;;;;;;;;;;;;14.42;52.68;103467.38;2103426;28;20367;-57
2023/04/03 01:58:59;;;;;;;;;;;;;;;14.42;52.58;103472.81;2103456;28;19970;-56
2023/04/03 02:00:02;;;;;;;;;;;;;;;14.42;52.49;103472.81;2110329;28;20383;-56
2023/04/03 02:01:13;;;;;;;;;;;;;;;14.41;52.38;103465.78;2119462;28;19950;-55
2023/04/03 02:02:16;;;;;;;;;;;;;;;14.41;52.42;103471.22;2109396;28;19928;-55
2023/04/03 02:03:20;;;;;;;;;;;;;;;14.41;52.39;103473.94;2113739;28;19935;-57
2023/04/03 02:04:22;;;;;;;;;;;;;;;14.40;52.38;103466.88;2115541;28;20391;-57
2023/04/03 02:05:24;;;;;;;;;;;;;;;14.40;52.19;103470.41;2113695;28;19927;-58
2023/04/03 02:06:27;;;;;;;;;;;;;;;14.40;52.42;103475.00;2097238;28;19966;-57
2023/04/03 02:07:29;;;;;;;;;;;;;;;14.40;52.06;103475.00;2104478;28;19928;-57
2023/04/03 02:08:31;;;;;;;;;;;;;;;14.40;52.00;103472.28;2116607;28;19927;-56
2023/04/03 02:09:33;;;;;;;;;;;;;;;14.39;52.46;103474.22;2106679;28;19928;-57
2023/04/03 02:10:36;;;;;;;;;;;;;;;14.39;52.34;103473.41;2094867;28;19935;-56
2023/04/03 02:11:38;;;;;;;;;;;;;;;14.38;52.40;103478.03;2106029;28;19943;-55
2023/04/03 02:12:41;;;;;;;;;;;;;;;14.38;52.02;103471.81;2112779;28;19927;-55
2023/04/03 02:13:42;;;;;;;;;;;;;;;14.38;52.27;103478.03;2111403;28;20489;-57
2023/04/03 02:14:45;;;;;;;;;;;;;;;14.38;51.87;103479.97;2112099;28;19992;-56
2023/04/03 02:15:47;;;;;;;;;;;;;;;14.37;52.03;103476.44;2103595;28;20292;-55
2023/04/03 02:16:52;;;;;;;;;;;;;;;14.37;51.94;103476.44;2094709;28;19929;-55
2023/04/03 02:17:56;;;;;;;;;;;;;;;14.37;52.09;103489.22;2098388;28;19929;-57
2023/04/03 02:19:00;;;;;;;;;;;;;;;14.37;51.60;103492.75;2114122;28;20425;-56
2023/04/03 02:20:04;;;;;;;;;;;;;;;14.37;51.58;103489.22;2107762;28;19990;-55
2023/04/03 02:21:08;;;;;;;;;;;;;;;14.36;51.91;103493.88;2105652;28;19940;-53
2023/04/03 02:22:09;;;;;;;;;;;;;;;14.36;52.14;103487.63;2113111;28;19928;-55
2023/04/03 02:23:12;;;;;;;;;;;;;;;14.36;51.95;103482.19;2112365;28;20339;-55
2023/04/03 02:24:14;;;;;;;;;;;;;;;14.35;51.99;103492.22;2109500;28;19935;-56
2023/04/03 02:25:18;;;;;;;;;;;;;;;14.36;51.65;103491.16;2111218;28;20402;-56
2023/04/03 02:26:19;;;;;;;;;;;;;;;14.35;51.96;103489.50;2112714;28;19940;-57
2023/04/03 02:27:22;;;;;;;;;;;;;;;14.36;51.75;103493.03;2117858;28;19981;-56
2023/04/03 02:28:24;;;;;;;;;;;;;;;14.36;51.62;103484.91;2112180;28;19928;-58
2023/04/03 02:29:27;;;;;;;;;;;;;;;14.36;51.80;103495.75;2115261;28;19924;-56
2023/04/03 02:30:28;;;;;;;;;;;;;;;14.35;51.57;103502.31;2114442;28;19928;-56
2023/04/03 02:31:31;;;;;;;;;;;;;;;14.34;51.82;103493.34;2108668;28;19935;-56
2023/04/03 02:32:35;;;;;;;;;;;;;;;14.35;51.25;103491.44;2103840;28;19932;-54
2023/04/03 02:33:38;;;;;;;;;;;;;;;14.33;51.61;103497.19;2095350;28;20400;-54
2023/04/03 02:34:44;;;;;;;;;;;;;;;14.35;51.40;103494.16;2099696;28;20403;-53
2023/04/03 02:35:52;;;;;;;;;;;;;;;14.33;51.31;103501.81;2103715;28;20611;-53
2023/04/03 02:36:55;;;;;;;;;;;;;;;14.34;51.35;103503.41;2111022;28;19928;-52
2023/04/03 02:37:58;;;;;;;;;;;;;;;14.33;51.32;103497.19;2112911;28;20447;-54
2023/04/03 02:39:00;;;;;;;;;;;;;;;14.32;51.60;103505.59;2111991;28;20368;-50
2023/04/03 02:40:03;;;;;;;;;;;;;;;14.33;51.06;103496.38;2110257;28;19927;-52
2023/04/03 02:41:06;;;;;;;;;;;;;;;14.32;51.07;103500.16;2109631;28;19928;-52
2023/04/03 02:42:08;;;;;;;;;;;;;;;14.32;51.35;103500.16;2105782;28;20038;-53
2023/04/03 02:43:11;;;;;;;;;;;;;;;14.31;51.38;103504.81;2095396;28;20402;-53
2023/04/03 02:44:13;;;;;;;;;;;;;;;14.31;50.99;103504.81;2103398;28;20358;-53
2023/04/03 02:45:15;;;;;;;;;;;;;;;14.31;50.85;103498.56;2108530;28;20326;-52
2023/04/03 02:46:18;;;;;;;;;;;;;;;14.32;51.34;103502.88;2109162;28;20394;-54
2023/04/03 02:47:19;;;;;;;;;;;;;;;14.32;50.73;103505.59;2112823;28;20280;-53
2023/04/03 02:48:23;;;;;;;;;;;;;;;14.30;50.91;103503.19;2111465;28;19928;-53
2023/04/03 02:49:25;;;;;;;;;;;;;;;14.31;51.14;103498.56;2102366;28;19976;-54
2023/04/03 02:50:28;;;;;;;;;;;;;;;14.29;50.68;103506.22;2109562;28;20370;-52
2023/04/03 02:51:30;;;;;;;;;;;;;;;14.30;51.09;103505.91;2115885;28;20022;-52
2023/04/03 02:52:33;;;;;;;;;;;;;;;14.30;50.70;103500.47;2114908;28;19927;-54
2023/04/03 02:53:34;;;;;;;;;;;;;;;14.30;50.65;103513.28;2112060;28;19934;-54
2023/04/03 02:54:44;;;;;;;;;;;;;;;14.30;50.33;103513.28;2096843;28;19929;-52
2023/04/03 02:55:45;;;;;;;;;;;;;;;14.29;50.83;103507.03;2100990;28;19928;-52
2023/04/03 02:56:48;;;;;;;;;;;;;;;14.29;50.66;103511.66;2116444;27;19931;-52
2023/04/03 02:57:50;;;;;;;;;;;;;;;14.29;51.04;103519.81;2120180;27;20298;-52
2023/04/03 02:58:52;;;;;;;;;;;;;;;14.28;51.00;103516.31;2114640;27;19979;-52
2023/04/03 02:59:54;;;;;;;;;;;;;;;14.28;50.55;103510.06;2107320;28;20450;-53
2023/04/03 03:00:57;;;;;;;;;;;;;;;14.28;50.33;103515.47;2094256;28;19975;-52
2023/04/03 03:01:59;;;;;;;;;;;;;;;14.28;50.54;103515.47;2089484;28;20296;-53
2023/04/03 03:03:02;;;;;;;;;;;;;;;14.28;50.76;103515.47;2114100;27;19931;-52
2023/04/03 03:04:04;;;;;;;;;;;;;;;14.27;50.68;103516.59;2117579;27;19927;-53
2023/04/03 03:05:07;;;;;;;;;;;;;;;14.27;51.02;103514.66;2108021;28;19935;-53
2023/04/03 03:06:11;;;;;;;;;;;;;;;14.28;50.63;103518.19;2105988;28;20434;-54
2023/04/03 03:07:15;;;;;;;;;;;;;;;14.27;50.55;103520.09;2112281;27;19924;-53
2023/04/03 03:08:19;;;;;;;;;;;;;;;14.27;50.86;103525.53;2114643;28;20014;-54
2023/04/03 03:09:22;;;;;;;;;;;;;;;14.26;50.52;103523.13;2113473;28;20397;-51
2023/04/03 03:10:24;;;;;;;;;;;;;;;14.27;50.58;103530.19;2114333;27;19972;-53
2023/04/03 03:11:26;;;;;;;;;;;;;;;14.26;50.40;103523.94;2113826;28;19932;-53
2023/04/03 03:12:29;;;;;;;;;;;;;;;14.26;50.06;103529.38;2114215;28;19949;-52
2023/04/03 03:13:33;;;;;;;;;;;;;;;14.26;50.26;103526.66;2114893;27;20418;-58
2023/04/03 03:14:36;;;;;;;;;;;;;;;14.25;50.25;103522.34;2113672;28;20271;-53
2023/04/03 03:15:38;;;;;;;;;;;;;;;14.26;50.05;103523.13;2110035;28;20476;-53
2023/04/03 03:16:40;;;;;;;;;;;;;;;14.25;50.07;103525.06;2099963;28;20022;-54
2023/04/03 03:17:42;;;;;;;;;;;;;;;14.26;49.82;103525.84;2096569;28;20068;-51
2023/04/03 03:18:45;;;;;;;;;;;;;;;14.25;50.37;103526.97;2113434;28;19928;-53
2023/04/03 03:19:47;;;;;;;;;;;;;;;14.25;50.11;103526.97;2115658;27;19927;-52
2023/04/03 03:20:51;;;;;;;;;;;;;;;14.24;49.96;103526.13;2115271;27;20403;-53
2023/04/03 03:21:56;;;;;;;;;;;;;;;14.25;50.07;103526.97;2105802;28;19924;-53
2023/04/03 03:22:59;;;;;;;;;;;;;;;14.24;49.73;103528.84;2103482;27;19977;-54
2023/04/03 03:24:01;;;;;;;;;;;;;;;14.24;50.07;103528.03;2114137;28;19931;-53
2023/04/03 03:25:04;;;;;;;;;;;;;;;14.24;49.78;103520.72;2109192;28;19928;-53
2023/04/03 03:26:06;;;;;;;;;;;;;;;14.24;50.02;103525.31;2114439;27;19939;-53
2023/04/03 03:27:10;;;;;;;;;;;;;;;14.24;49.71;103525.31;2115913;27;20387;-54
2023/04/03 03:28:11;;;;;;;;;;;;;;;14.23;49.91;103529.94;2101647;28;19935;-53
2023/04/03 03:29:14;;;;;;;;;;;;;;;14.24;49.73;103536.19;2096334;28;20380;-50
2023/04/03 03:30:16;;;;;;;;;;;;;;;14.22;49.97;103532.97;2102316;28;20423;-50
2023/04/03 03:31:19;;;;;;;;;;;;;;;14.23;50.01;103534.56;2089843;28;19928;-53
2023/04/03 03:32:21;;;;;;;;;;;;;;;14.23;49.93;103540.00;2097101;28;20455;-52
2023/04/03 03:33:24;;;;;;;;;;;;;;;14.23;49.72;103545.44;2122003;27;19966;-53
2023/04/03 03:34:26;;;;;;;;;;;;;;;14.21;49.74;103534.03;2117707;27;19965;-56
2023/04/03 03:35:29;;;;;;;;;;;;;;;14.22;49.43;103532.97;2113402;27;19932;-55
2023/04/03 03:36:32;;;;;;;;;;;;;;;14.22;49.51;103541.13;2116253;27;20020;-56
2023/04/03 03:37:36;;;;;;;;;;;;;;;14.21;49.93;103534.03;2113234;27;20274;-56
2023/04/03 03:38:38;;;;;;;;;;;;;;;14.21;49.66;103531.34;2105929;28;19936;-56
2023/04/03 03:39:40;;;;;;;;;;;;;;;14.21;49.64;103534.03;2107495;28;19957;-56
2023/04/03 03:40:43;;;;;;;;;;;;;;;14.21;49.42;103537.59;2113939;27;19928;-56
2023/04/03 03:41:45;;;;;;;;;;;;;;;14.21;49.50;103537.59;2119772;27;20081;-55
2023/04/03 03:42:47;;;;;;;;;;;;;;;14.20;49.44;103529.72;2109945;28;19935;-55
2023/04/03 03:43:50;;;;;;;;;;;;;;;14.20;49.08;103535.16;2105147;28;19932;-55
2023/04/03 03:44:52;;;;;;;;;;;;;;;14.20;49.54;103540.59;2092772;28;19929;-55
2023/04/03 03:45:55;;;;;;;;;;;;;;;14.19;49.49;103536.28;2095720;28;20376;-56
2023/04/03 03:46:58;;;;;;;;;;;;;;;14.18;49.44;103530.03;2099543;28;20675;-57
2023/04/03 03:48:01;;;;;;;;;;;;;;;14.19;49.26;103534.34;2122840;27;20056;-57
2023/04/03 03:49:03;;;;;;;;;;;;;;;14.20;48.86;103532.44;2106068;28;20398;-56
2023/04/03 03:50:07;;;;;;;;;;;;;;;14.19;48.90;103536.28;2106590;28;19934;-56
2023/04/03 03:51:09;;;;;;;;;;;;;;;14.19;49.17;103545.22;2099493;28;20325;-56
2023/04/03 03:52:13;;;;;;;;;;;;;;;14.18;49.28;103534.66;2103591;28;20014;-52
2023/04/03 03:53:16;;;;;;;;;;;;;;;14.17;48.74;103538.47;2104875;28;19928;-56
2023/04/03 03:54:19;;;;;;;;;;;;;;;14.18;49.22;103540.91;2098600;28;19932;-61
2023/04/03 03:55:21;;;;;;;;;;;;;;;14.17;48.97;103536.59;2094542;28;19986;-56
2023/04/03 03:56:27;;;;;;;;;;;;;;;14.17;48.98;103533.06;2102709;28;19929;-56
2023/04/03 03:57:30;;;;;;;;;;;;;;;14.17;48.92;103535.75;2099149;28;19987;-56
2023/04/03 03:58:33;;;;;;;;;;;;;;;14.15;48.66;103536.06;2101405;28;19978;-55
2023/04/03 03:59:36;;;;;;;;;;;;;;;14.16;48.55;103539.59;2104265;28;19939;-56
2023/04/03 04:00:38;;;;;;;;;;;;;;;14.15;49.02;103536.06;2107132;27;19931;-56
2023/04/03 04:01:40;;;;;;;;;;;;;;;14.16;49.14;103534.16;2110494;27;19927;-55
2023/04/03 04:02:44;;;;;;;;;;;;;;;14.16;48.85;103545.03;2120564;27;19949;-55
2023/04/03 04:03:49;;;;;;;;;;;;;;;14.16;48.65;103536.88;2111085;28;20066;-56
2023/04/03 04:04:55;;;;;;;;;;;;;;;14.16;48.67;103545.03;2092012;28;19935;-56
2023/04/03 04:05:57;;;;;;;;;;;;;;;14.15;48.76;103543.41;2095370;28;20354;-56
2023/04/03 04:07:00;;;;;;;;;;;;;;;14.15;48.77;103543.41;2100745;28;19970;-57
2023/04/03 04:08:03;;;;;;;;;;;;;;;14.14;48.82;103541.78;2103186;28;20367;-59
2023/04/03 04:09:07;;;;;;;;;;;;;;;14.13;48.79;103537.47;2091632;28;19933;-54
2023/04/03 04:10:09;;;;;;;;;;;;;;;14.14;48.56;103539.09;2105689;28;19928;-57
2023/04/03 04:11:12;;;;;;;;;;;;;;;14.12;48.40;103535.84;2096688;28;19928;-55
2023/04/03 04:12:15;;;;;;;;;;;;;;;14.13;48.49;103534.75;2096277;28;19936;-56
2023/04/03 04:13:18;;;;;;;;;;;;;;;14.12;48.49;103538.56;2101642;28;19928;-56
2023/04/03 04:14:20;;;;;;;;;;;;;;;14.12;48.24;103538.56;2113693;28;19964;-55
2023/04/03 04:15:23;;;;;;;;;;;;;;;14.12;48.20;103541.28;2096561;28;19928;-55
2023/04/03 04:16:25;;;;;;;;;;;;;;;14.12;48.66;103539.38;2097747;28;20614;-55
2023/04/03 04:17:29;;;;;;;;;;;;;;;14.11;48.38;103542.41;2100970;28;20008;-57
2023/04/03 04:18:31;;;;;;;;;;;;;;;14.11;48.18;103547.84;2098144;28;20383;-53
2023/04/03 04:19:34;;;;;;;;;;;;;;;14.10;48.27;103544.31;2097948;28;19958;-56
2023/04/03 04:20:35;;;;;;;;;;;;;;;14.11;48.30;103547.84;2106142;28;20057;-55
2023/04/03 04:21:38;;;;;;;;;;;;;;;14.10;48.55;103546.19;2108275;27;19992;-55
2023/04/03 04:22:40;;;;;;;;;;;;;;;14.10;48.27;103552.44;2096789;28;20282;-55
2023/04/03 04:23:44;;;;;;;;;;;;;;;14.10;48.53;103554.34;2105086;28;19931;-56
2023/04/03 04:24:47;;;;;;;;;;;;;;;14.09;48.09;103552.75;2105487;28;19928;-56
2023/04/03 04:25:50;;;;;;;;;;;;;;;14.10;48.39;103554.34;2099203;28;19924;-56
2023/04/03 04:26:52;;;;;;;;;;;;;;;14.09;48.27;103556.28;2100164;28;19935;-56
2023/04/03 04:27:56;;;;;;;;;;;;;;;14.09;48.17;103555.47;2097064;28;19927;-55
2023/04/03 04:28:58;;;;;;;;;;;;;;;14.09;47.81;103556.28;2107123;28;20453;-56
2023/04/03 04:30:00;;;;;;;;;;;;;;;14.09;48.23;103560.91;2112954;28;20329;-57
2023/04/03 04:31:03;;;;;;;;;;;;;;;14.09;48.50;103558.19;2101251;28;19980;-59
2023/04/03 04:32:05;;;;;;;;;;;;;;;14.09;47.88;103563.63;2093281;28;19935;-55
2023/04/03 04:33:08;;;;;;;;;;;;;;;14.07;48.22;103558.47;2109134;28;19928;-56
2023/04/03 04:34:10;;;;;;;;;;;;;;;14.08;47.79;103565.53;2110971;27;19946;-57
2023/04/03 04:35:13;;;;;;;;;;;;;;;14.08;48.13;103564.72;2099126;28;19928;-52
2023/04/03 04:36:19;;;;;;;;;;;;;;;14.07;48.12;103571.25;2103816;28;20019;-53
2023/04/03 04:37:22;;;;;;;;;;;;;;;14.07;48.03;103573.97;2102370;28;20008;-51
2023/04/03 04:38:24;;;;;;;;;;;;;;;14.07;47.74;103579.41;2089563;28;19959;-53
2023/04/03 04:39:28;;;;;;;;;;;;;;;14.07;48.12;103579.41;2099933;28;19977;-50
2023/04/03 04:40:33;;;;;;;;;;;;;;;14.06;48.08;103572.38;2098701;28;19967;-52
2023/04/03 04:41:36;;;;;;;;;;;;;;;14.06;47.72;103577.81;2099270;28;20299;-53
2023/04/03 04:42:39;;;;;;;;;;;;;;;14.07;47.79;103573.97;2107359;27;19924;-53
2023/04/03 04:43:42;;;;;;;;;;;;;;;14.06;48.20;103572.38;2104800;28;20013;-54
2023/04/03 04:44:44;;;;;;;;;;;;;;;14.06;47.69;103577.81;2104894;28;19924;-53
2023/04/03 04:45:49;;;;;;;;;;;;;;;14.06;47.74;103580.50;2091361;28;19928;-52
2023/04/03 04:46:53;;;;;;;;;;;;;;;14.04;47.69;103575.38;2091103;28;19925;-53
2023/04/03 04:47:56;;;;;;;;;;;;;;;14.05;47.93;103576.97;2100842;28;19928;-52
2023/04/03 04:48:59;;;;;;;;;;;;;;;14.04;48.35;103580.81;2103629;28;20022;-57
2023/04/03 04:50:05;;;;;;;;;;;;;;;14.05;47.42;103587.06;2096584;28;20396;-54
2023/04/03 04:51:07;;;;;;;;;;;;;;;14.04;47.42;103585.44;2096755;28;19928;-52
2023/04/03 04:52:11;;;;;;;;;;;;;;;14.04;47.27;103590.88;2103154;28;19943;-52
2023/04/03 04:53:15;;;;;;;;;;;;;;;14.04;47.49;103582.72;2104721;28;19924;-53
2023/04/03 04:54:17;;;;;;;;;;;;;;;14.03;47.67;103595.50;2118568;27;19974;-53
2023/04/03 04:55:21;;;;;;;;;;;;;;;14.03;48.01;103590.06;2116055;27;20577;-53
2023/04/03 04:56:26;;;;;;;;;;;;;;;14.03;47.62;103594.69;2104622;28;19924;-51
2023/04/03 04:57:31;;;;;;;;;;;;;;;14.03;47.47;103600.13;2096696;28;19925;-52
2023/04/03 04:58:33;;;;;;;;;;;;;;;14.03;47.78;103594.69;2106730;27;19975;-52
2023/04/03 04:59:37;;;;;;;;;;;;;;;14.02;47.57;103601.22;2110194;28;20443;-51
2023/04/03 05:00:41;;;;;;;;;;;;;;;14.03;47.41;103600.13;2110779;28;19928;-53
2023/04/03 05:01:44;;;;;;;;;;;;;;;14.02;47.49;103598.50;2099360;28;20379;-61
2023/04/03 05:02:49;;;;;;;;;;;;;;;14.01;47.44;103597.72;2090313;28;20372;-52
2023/04/03 05:03:54;;;;;;;;;;;;;;;14.01;47.76;103599.59;2105514;28;19936;-52
2023/04/03 05:04:58;;;;;;;;;;;;;;;14.01;47.08;103605.03;2102937;28;19976;-53
2023/04/03 05:06:03;;;;;;;;;;;;;;;14.01;47.53;103605.03;2104693;28;19928;-52
2023/04/03 05:07:07;;;;;;;;;;;;;;;14.01;47.01;103607.75;2095792;28;19979;-51
2023/04/03 05:08:10;;;;;;;;;;;;;;;14.00;47.18;103598.00;2093927;28;20277;-52
2023/04/03 05:09:15;;;;;;;;;;;;;;;14.01;47.08;103607.75;2095862;28;19928;-53
2023/04/03 05:10:20;;;;;;;;;;;;;;;14.00;47.05;103606.16;2093773;28;20331;-50
2023/04/03 05:11:22;;;;;;;;;;;;;;;14.00;47.41;103596.06;2090176;28;19992;-52
2023/04/03 05:12:28;;;;;;;;;;;;;;;14.00;46.91;103595.28;2096501;28;19958;-53
2023/04/03 05:13:34;;;;;;;;;;;;;;;13.99;47.08;103594.47;2103667;28;20015;-53
2023/04/03 05:14:36;;;;;;;;;;;;;;;13.98;47.00;103590.16;2095922;28;19979;-52
2023/04/03 05:15:41;;;;;;;;;;;;;;;13.99;47.27;103593.66;2096163;28;20023;-54
2023/04/03 05:16:44;;;;;;;;;;;;;;;13.99;47.54;103593.66;2102062;28;20006;-52
2023/04/03 05:17:47;;;;;;;;;;;;;;;13.98;47.05;103590.16;2096155;28;19936;-51
2023/04/03 05:18:50;;;;;;;;;;;;;;;13.98;46.84;103598.31;2088817;28;19967;-51
2023/04/03 05:19:55;;;;;;;;;;;;;;;13.98;46.79;103598.31;2093001;28;20008;-52
2023/04/03 05:20:58;;;;;;;;;;;;;;;13.98;46.81;103594.78;2095162;28;19981;-53
2023/04/03 05:22:02;;;;;;;;;;;;;;;13.98;47.51;103597.50;2093787;28;20396;-52
2023/04/03 05:23:04;;;;;;;;;;;;;;;13.97;47.30;103596.66;2095076;28;19964;-53
2023/04/03 05:24:09;;;;;;;;;;;;;;;13.98;47.09;103597.50;2087782;28;20024;-54
2023/04/03 05:25:15;;;;;;;;;;;;;;;13.97;46.41;103595.88;2089032;28;19928;-52